Aviation Digital Data Service (ADDS)

Output produced by METARs form (0905 UTC 18 August 2017)
found at http://aviationweather.gov/adds/metars/
 
KCON 180900Z 1809/1906 00000KT P6SM VCSH BKN090 
     FM181400 00000KT P6SM OVC015 
     TEMPO 1814/1815 2SM -SHRA OVC007 
     FM181500 00000KT 2SM -SHRA OVC008 
     FM190000 14005KT 1SM -SHRA BR OVC008